TISTTNCA

Guest
Details From TIST - St Thomas - Cyril E King
To TNCA - Reina Beatrix Intl
Flight Number -
Tags Generated
Created
Modified
Stats Distance 456 nm / 844 km
Max Altitude 0 ft / 0 m
Waypoints 3
Social Downloads 1
Likes 0
Share VATSIM

Download

Looking for another format? Having issues loading an existing format? Contact us
Advertisement - Login to hide

Notes

Generated

Route

TIST R1327 TNCA

ID Type Via Altitude Latitude Longitude Leg Dist Tot Dist Heading (true) Name
O TIST APT - 0 ft / 0 m 18.33687˚ -64.98343˚ - 0 nm - -
R1327 FIX - 0 ft / 0 m 12.50439˚ -70.02747˚ 455 nm 455 nm 221° / 219° -
O TNCA APT - 0 ft / 0 m 12.50439˚ -70.02747˚ 0 nm 455 nm 0° / 180° -

Altitude Profile

Advertisement - Login to hide

Weather


0- 5 10 15 20 25 30 35+ Temperature / ° C

Clouds and Precipitation
Forecast for 2017-12-16 06:00 UTC. Updated 2 hours ago

Ground ~20,000 ft ~40,000 ft Winds

TIST

Details ICAO TIST (STT)
Name St Thomas - Cyril E King
Region USA (U.S. Virgin Islands)
Timezone Unknown (UTC+0.0)
Stats Elevation 23 ft / 7 m (AMSL)
Location 18.337300° -64.973344°
Runways 1
Magnetic Variation 13.636° W

METAR

TIST 160253Z AUTO 05007KT 10SM CLR 26/23 A3007 RMK AO2 SLP182 T02610228 51007

Decode

TAF

TAF TIST 152320Z 1600/1624 08010KT P6SM FEW025 FM161400 05012G19KT P6SM FEW025 FM162200 07009KT P6SM FEW030

Decode

Departure Runways

ID Width Length Bearing (true) Bearing (mag) Surface Threshold Offset Overrun Length
10 151 ft / 46 m 6,992 ft / 2,131 m 87.44° 101.08° Asphalt 0 ft / 0 m 200 ft / 61 m
28 151 ft / 46 m 6,992 ft / 2,131 m 267.44° 281.08° Asphalt 2,300 ft / 701 m 200 ft / 61 m

TNCA

Details ICAO TNCA (AUA)
Name REINA BEATRIX INTL
Region Caribbean Netherlands, Aruba, Curaçao, Sint Maarten
Timezone America/Aruba (UTC-4.0)
Stats Elevation 60 ft / 18 m (AMSL)
Location 12.501389° -70.015220°
Runways 1
Magnetic Variation 10.771° W

METAR

TNCA 160300Z 08013KT 9999 FEW018 27/23 Q1014 A2994 NOSIG

Decode

TAF

Not found

Destination Runways

ID Width Length Bearing (true) Bearing (mag) Surface Threshold Offset Overrun Length
11 148 ft / 45 m 8,998 ft / 2,743 m 104.08° 114.85° Asphalt 0 ft / 0 m 184 ft / 56 m
29 148 ft / 45 m 8,998 ft / 2,743 m 284.09° 294.86° Asphalt 0 ft / 0 m 184 ft / 56 m

Approach Navaids

Runway Type Ident Frequency Range Bearing (true) Bearing (mag) Slope Elevation
11 Localiser IBE 108.70 MHz 18 nm / 33 km 103.91° 114.68° - 58 ft / 18 m (AMSL)
11 Glidescope IBE 108.70 MHz 10 nm / 19 km 104.08° 114.85° 2.98° 10 ft / 3 m (AMSL)
11 DME IBE 108.70 MHz 18 nm / 33 km - - - 58 ft / 18 m (AMSL)